sensor_id;sensor_type;location;lat;lon;timestamp;P1;durP1;ratioP1;P2;durP2;ratioP2
22567;SDS011;11450;50.818;4.382;2022-07-22T00:00:15;11.63;;;2.67;;
22567;SDS011;11450;50.818;4.382;2022-07-22T00:02:50;9.48;;;3.30;;
22567;SDS011;11450;50.818;4.382;2022-07-22T00:05:22;12.65;;;3.30;;
22567;SDS011;11450;50.818;4.382;2022-07-22T00:07:58;10.73;;;2.90;;
22567;SDS011;11450;50.818;4.382;2022-07-22T00:10:33;13.10;;;3.63;;
22567;SDS011;11450;50.818;4.382;2022-07-22T00:13:01;7.57;;;2.80;;
22567;SDS011;11450;50.818;4.382;2022-07-22T00:15:47;7.32;;;2.75;;
22567;SDS011;11450;50.818;4.382;2022-07-22T00:18:13;7.78;;;2.90;;
22567;SDS011;11450;50.818;4.382;2022-07-22T00:20:54;11.40;;;3.42;;
22567;SDS011;11450;50.818;4.382;2022-07-22T00:23:27;15.13;;;2.97;;
22567;SDS011;11450;50.818;4.382;2022-07-22T00:25:54;11.20;;;3.58;;
22567;SDS011;11450;50.818;4.382;2022-07-22T00:28:21;11.27;;;3.40;;
22567;SDS011;11450;50.818;4.382;2022-07-22T00:31:18;9.95;;;3.03;;
22567;SDS011;11450;50.818;4.382;2022-07-22T00:34:04;13.05;;;3.38;;
22567;SDS011;11450;50.818;4.382;2022-07-22T00:40:03;9.63;;;2.67;;
22567;SDS011;11450;50.818;4.382;2022-07-22T00:42:30;11.75;;;3.75;;
22567;SDS011;11450;50.818;4.382;2022-07-22T00:44:56;11.15;;;3.00;;
22567;SDS011;11450;50.818;4.382;2022-07-22T00:47:29;14.02;;;3.72;;
22567;SDS011;11450;50.818;4.382;2022-07-22T00:49:57;10.68;;;3.25;;
22567;SDS011;11450;50.818;4.382;2022-07-22T00:52:27;10.98;;;3.33;;
22567;SDS011;11450;50.818;4.382;2022-07-22T00:54:55;7.53;;;3.13;;
22567;SDS011;11450;50.818;4.382;2022-07-22T00:57:25;9.60;;;3.65;;
22567;SDS011;11450;50.818;4.382;2022-07-22T00:59:56;10.63;;;3.67;;
22567;SDS011;11450;50.818;4.382;2022-07-22T01:02:33;10.43;;;3.42;;
22567;SDS011;11450;50.818;4.382;2022-07-22T01:05:32;12.45;;;3.72;;
22567;SDS011;11450;50.818;4.382;2022-07-22T01:08:04;10.07;;;3.72;;
22567;SDS011;11450;50.818;4.382;2022-07-22T01:13:27;9.73;;;3.22;;
22567;SDS011;11450;50.818;4.382;2022-07-22T01:15:57;12.35;;;3.88;;
22567;SDS011;11450;50.818;4.382;2022-07-22T01:18:28;12.07;;;3.35;;
22567;SDS011;11450;50.818;4.382;2022-07-22T01:23:30;12.23;;;3.50;;
22567;SDS011;11450;50.818;4.382;2022-07-22T01:26:01;8.82;;;3.38;;
22567;SDS011;11450;50.818;4.382;2022-07-22T01:28:33;12.20;;;3.72;;
22567;SDS011;11450;50.818;4.382;2022-07-22T01:31:03;10.95;;;3.28;;
22567;SDS011;11450;50.818;4.382;2022-07-22T01:33:36;9.65;;;3.10;;
22567;SDS011;11450;50.818;4.382;2022-07-22T01:39:26;20.05;;;3.85;;
22567;SDS011;11450;50.818;4.382;2022-07-22T01:41:59;11.50;;;3.35;;
22567;SDS011;11450;50.818;4.382;2022-07-22T01:44:30;9.23;;;2.95;;
22567;SDS011;11450;50.818;4.382;2022-07-22T01:47:14;9.38;;;2.90;;
22567;SDS011;11450;50.818;4.382;2022-07-22T01:50:19;10.05;;;3.05;;
22567;SDS011;11450;50.818;4.382;2022-07-22T01:53:08;7.97;;;2.77;;
22567;SDS011;11450;50.818;4.382;2022-07-22T01:55:51;9.82;;;2.83;;
22567;SDS011;11450;50.818;4.382;2022-07-22T01:58:23;9.05;;;2.63;;
22567;SDS011;11450;50.818;4.382;2022-07-22T02:00:57;12.35;;;3.13;;
22567;SDS011;11450;50.818;4.382;2022-07-22T02:03:28;9.77;;;3.17;;
22567;SDS011;11450;50.818;4.382;2022-07-22T02:05:54;7.93;;;3.03;;
22567;SDS011;11450;50.818;4.382;2022-07-22T02:08:20;10.45;;;2.80;;
22567;SDS011;11450;50.818;4.382;2022-07-22T02:10:56;8.90;;;3.05;;
22567;SDS011;11450;50.818;4.382;2022-07-22T02:13:27;11.57;;;3.38;;
22567;SDS011;11450;50.818;4.382;2022-07-22T02:15:54;12.13;;;3.40;;
22567;SDS011;11450;50.818;4.382;2022-07-22T02:18:21;8.70;;;3.47;;
22567;SDS011;11450;50.818;4.382;2022-07-22T02:21:08;11.98;;;3.65;;
22567;SDS011;11450;50.818;4.382;2022-07-22T02:23:38;9.15;;;3.05;;
22567;SDS011;11450;50.818;4.382;2022-07-22T02:26:04;10.88;;;2.90;;
22567;SDS011;11450;50.818;4.382;2022-07-22T02:28:30;9.75;;;3.13;;
22567;SDS011;11450;50.818;4.382;2022-07-22T02:31:00;13.77;;;3.28;;
22567;SDS011;11450;50.818;4.382;2022-07-22T02:33:27;12.30;;;3.58;;
22567;SDS011;11450;50.818;4.382;2022-07-22T02:38:55;9.85;;;2.78;;
22567;SDS011;11450;50.818;4.382;2022-07-22T02:41:22;12.63;;;3.53;;
22567;SDS011;11450;50.818;4.382;2022-07-22T02:43:48;9.35;;;3.42;;
22567;SDS011;11450;50.818;4.382;2022-07-22T02:46:22;9.60;;;2.88;;
22567;SDS011;11450;50.818;4.382;2022-07-22T02:48:50;11.05;;;3.88;;
22567;SDS011;11450;50.818;4.382;2022-07-22T02:51:28;10.10;;;3.53;;
22567;SDS011;11450;50.818;4.382;2022-07-22T02:54:04;9.88;;;3.17;;
22567;SDS011;11450;50.818;4.382;2022-07-22T02:56:30;9.13;;;3.15;;
22567;SDS011;11450;50.818;4.382;2022-07-22T02:58:56;12.25;;;3.90;;
22567;SDS011;11450;50.818;4.382;2022-07-22T03:01:23;8.77;;;3.55;;
22567;SDS011;11450;50.818;4.382;2022-07-22T03:03:52;10.38;;;3.35;;
22567;SDS011;11450;50.818;4.382;2022-07-22T03:06:25;12.40;;;3.45;;
22567;SDS011;11450;50.818;4.382;2022-07-22T03:08:54;15.05;;;3.60;;
22567;SDS011;11450;50.818;4.382;2022-07-22T03:14:03;14.00;;;3.38;;
22567;SDS011;11450;50.818;4.382;2022-07-22T03:16:29;7.57;;;3.13;;
22567;SDS011;11450;50.818;4.382;2022-07-22T03:18:55;12.63;;;3.70;;
22567;SDS011;11450;50.818;4.382;2022-07-22T03:21:24;10.98;;;3.78;;
22567;SDS011;11450;50.818;4.382;2022-07-22T03:23:50;9.35;;;2.97;;
22567;SDS011;11450;50.818;4.382;2022-07-22T03:26:22;7.93;;;3.00;;
22567;SDS011;11450;50.818;4.382;2022-07-22T03:28:49;12.68;;;3.60;;
22567;SDS011;11450;50.818;4.382;2022-07-22T03:31:15;13.00;;;3.42;;
22567;SDS011;11450;50.818;4.382;2022-07-22T03:33:42;9.35;;;2.90;;
22567;SDS011;11450;50.818;4.382;2022-07-22T03:36:20;10.32;;;2.90;;
22567;SDS011;11450;50.818;4.382;2022-07-22T03:38:49;13.70;;;3.67;;
22567;SDS011;11450;50.818;4.382;2022-07-22T03:41:18;9.52;;;3.55;;
22567;SDS011;11450;50.818;4.382;2022-07-22T03:43:47;8.52;;;3.50;;
22567;SDS011;11450;50.818;4.382;2022-07-22T03:46:35;10.40;;;4.10;;
22567;SDS011;11450;50.818;4.382;2022-07-22T03:49:28;12.50;;;3.53;;
22567;SDS011;11450;50.818;4.382;2022-07-22T03:55:30;7.85;;;3.63;;
22567;SDS011;11450;50.818;4.382;2022-07-22T03:58:18;10.20;;;3.10;;
22567;SDS011;11450;50.818;4.382;2022-07-22T04:01:45;9.15;;;3.55;;
22567;SDS011;11450;50.818;4.382;2022-07-22T04:03:55;8.63;;;3.67;;
22567;SDS011;11450;50.818;4.382;2022-07-22T04:06:43;11.70;;;3.78;;
22567;SDS011;11450;50.818;4.382;2022-07-22T04:09:25;11.55;;;3.80;;
22567;SDS011;11450;50.818;4.382;2022-07-22T04:15:35;10.02;;;2.97;;
22567;SDS011;11450;50.818;4.382;2022-07-22T04:18:15;8.98;;;3.75;;
22567;SDS011;11450;50.818;4.382;2022-07-22T04:20:53;9.98;;;3.85;;
22567;SDS011;11450;50.818;4.382;2022-07-22T04:23:32;7.53;;;3.00;;
22567;SDS011;11450;50.818;4.382;2022-07-22T04:26:13;10.75;;;3.88;;
22567;SDS011;11450;50.818;4.382;2022-07-22T04:28:41;10.18;;;3.83;;
22567;SDS011;11450;50.818;4.382;2022-07-22T04:31:27;12.88;;;3.75;;
22567;SDS011;11450;50.818;4.382;2022-07-22T04:34:28;12.63;;;4.07;;
22567;SDS011;11450;50.818;4.382;2022-07-22T04:40:14;8.85;;;3.90;;
22567;SDS011;11450;50.818;4.382;2022-07-22T04:42:53;9.15;;;4.03;;
22567;SDS011;11450;50.818;4.382;2022-07-22T04:45:40;13.82;;;4.88;;
22567;SDS011;11450;50.818;4.382;2022-07-22T04:48:18;10.60;;;3.80;;
22567;SDS011;11450;50.818;4.382;2022-07-22T04:56:43;10.43;;;3.50;;
22567;SDS011;11450;50.818;4.382;2022-07-22T04:59:09;9.35;;;4.25;;
22567;SDS011;11450;50.818;4.382;2022-07-22T05:01:43;12.02;;;3.67;;
22567;SDS011;11450;50.818;4.382;2022-07-22T05:04:13;12.10;;;4.30;;
22567;SDS011;11450;50.818;4.382;2022-07-22T05:13:36;9.38;;;4.18;;
22567;SDS011;11450;50.818;4.382;2022-07-22T05:16:23;13.57;;;4.40;;
22567;SDS011;11450;50.818;4.382;2022-07-22T05:18:51;10.90;;;4.13;;
22567;SDS011;11450;50.818;4.382;2022-07-22T05:26:53;10.82;;;4.05;;
22567;SDS011;11450;50.818;4.382;2022-07-22T05:29:24;11.07;;;4.78;;
22567;SDS011;11450;50.818;4.382;2022-07-22T05:34:58;14.00;;;5.90;;
22567;SDS011;11450;50.818;4.382;2022-07-22T05:37:45;11.65;;;6.35;;
22567;SDS011;11450;50.818;4.382;2022-07-22T05:40:20;18.10;;;6.95;;
22567;SDS011;11450;50.818;4.382;2022-07-22T05:43:09;13.05;;;7.40;;
22567;SDS011;11450;50.818;4.382;2022-07-22T05:45:55;11.57;;;6.10;;
22567;SDS011;11450;50.818;4.382;2022-07-22T05:48:21;20.50;;;8.02;;
22567;SDS011;11450;50.818;4.382;2022-07-22T05:50:51;15.65;;;7.00;;
22567;SDS011;11450;50.818;4.382;2022-07-22T05:56:39;15.50;;;7.63;;
22567;SDS011;11450;50.818;4.382;2022-07-22T05:59:08;13.32;;;7.00;;
22567;SDS011;11450;50.818;4.382;2022-07-22T06:01:40;12.27;;;7.00;;
22567;SDS011;11450;50.818;4.382;2022-07-22T06:04:12;12.75;;;7.10;;
22567;SDS011;11450;50.818;4.382;2022-07-22T06:06:38;15.65;;;6.82;;
22567;SDS011;11450;50.818;4.382;2022-07-22T06:12:27;12.98;;;7.22;;
22567;SDS011;11450;50.818;4.382;2022-07-22T06:15:00;17.15;;;7.32;;
22567;SDS011;11450;50.818;4.382;2022-07-22T06:17:37;10.85;;;6.38;;
22567;SDS011;11450;50.818;4.382;2022-07-22T06:20:11;10.80;;;5.80;;
22567;SDS011;11450;50.818;4.382;2022-07-22T06:22:43;10.65;;;6.13;;
22567;SDS011;11450;50.818;4.382;2022-07-22T06:25:14;9.38;;;5.47;;
22567;SDS011;11450;50.818;4.382;2022-07-22T06:27:45;12.18;;;4.70;;
22567;SDS011;11450;50.818;4.382;2022-07-22T06:30:39;9.90;;;4.63;;
22567;SDS011;11450;50.818;4.382;2022-07-22T06:37:02;13.52;;;5.43;;
22567;SDS011;11450;50.818;4.382;2022-07-22T06:39:43;11.02;;;5.03;;
22567;SDS011;11450;50.818;4.382;2022-07-22T06:42:29;13.52;;;4.68;;
22567;SDS011;11450;50.818;4.382;2022-07-22T06:45:01;11.73;;;4.40;;
22567;SDS011;11450;50.818;4.382;2022-07-22T06:47:29;8.18;;;3.33;;
22567;SDS011;11450;50.818;4.382;2022-07-22T06:50:02;10.25;;;4.13;;
22567;SDS011;11450;50.818;4.382;2022-07-22T06:52:38;8.90;;;3.80;;
22567;SDS011;11450;50.818;4.382;2022-07-22T06:55:14;5.93;;;3.38;;
22567;SDS011;11450;50.818;4.382;2022-07-22T06:57:43;10.50;;;3.45;;
22567;SDS011;11450;50.818;4.382;2022-07-22T07:00:13;7.57;;;3.50;;
22567;SDS011;11450;50.818;4.382;2022-07-22T07:02:47;6.43;;;3.13;;
22567;SDS011;11450;50.818;4.382;2022-07-22T07:05:15;4.30;;;2.60;;
22567;SDS011;11450;50.818;4.382;2022-07-22T07:07:44;7.07;;;3.22;;
22567;SDS011;11450;50.818;4.382;2022-07-22T07:10:14;5.20;;;3.13;;
22567;SDS011;11450;50.818;4.382;2022-07-22T07:12:41;8.20;;;3.63;;
22567;SDS011;11450;50.818;4.382;2022-07-22T07:15:16;7.15;;;3.50;;
22567;SDS011;11450;50.818;4.382;2022-07-22T07:17:54;11.05;;;4.25;;
22567;SDS011;11450;50.818;4.382;2022-07-22T07:20:28;7.90;;;3.60;;
22567;SDS011;11450;50.818;4.382;2022-07-22T07:26:22;12.45;;;3.65;;
22567;SDS011;11450;50.818;4.382;2022-07-22T07:28:57;8.30;;;3.20;;
22567;SDS011;11450;50.818;4.382;2022-07-22T07:36:45;7.78;;;4.00;;
22567;SDS011;11450;50.818;4.382;2022-07-22T08:14:57;6.13;;;2.83;;
22567;SDS011;11450;50.818;4.382;2022-07-22T08:17:33;7.95;;;3.30;;
22567;SDS011;11450;50.818;4.382;2022-07-22T08:19:59;4.65;;;2.92;;
22567;SDS011;11450;50.818;4.382;2022-07-22T08:22:29;5.75;;;3.35;;
22567;SDS011;11450;50.818;4.382;2022-07-22T08:24:55;8.27;;;3.78;;
22567;SDS011;11450;50.818;4.382;2022-07-22T08:27:26;5.47;;;3.50;;
22567;SDS011;11450;50.818;4.382;2022-07-22T08:29:54;6.20;;;3.35;;
22567;SDS011;11450;50.818;4.382;2022-07-22T08:32:29;8.32;;;3.63;;
22567;SDS011;11450;50.818;4.382;2022-07-22T08:35:03;8.63;;;3.80;;
22567;SDS011;11450;50.818;4.382;2022-07-22T08:37:54;7.28;;;4.40;;
22567;SDS011;11450;50.818;4.382;2022-07-22T08:40:47;9.40;;;6.00;;
22567;SDS011;11450;50.818;4.382;2022-07-22T08:43:24;6.60;;;4.03;;
22567;SDS011;11450;50.818;4.382;2022-07-22T08:46:15;5.43;;;3.00;;
22567;SDS011;11450;50.818;4.382;2022-07-22T08:55:47;6.10;;;3.17;;
22567;SDS011;11450;50.818;4.382;2022-07-22T08:58:49;7.00;;;3.38;;
22567;SDS011;11450;50.818;4.382;2022-07-22T09:10:42;5.93;;;2.92;;
22567;SDS011;11450;50.818;4.382;2022-07-22T09:13:43;7.35;;;4.05;;
22567;SDS011;11450;50.818;4.382;2022-07-22T09:16:41;6.63;;;3.33;;
22567;SDS011;11450;50.818;4.382;2022-07-22T09:22:13;7.68;;;3.70;;
22567;SDS011;11450;50.818;4.382;2022-07-22T09:28:31;5.75;;;3.03;;
22567;SDS011;11450;50.818;4.382;2022-07-22T09:31:25;7.70;;;3.35;;
22567;SDS011;11450;50.818;4.382;2022-07-22T09:58:49;5.88;;;2.63;;
22567;SDS011;11450;50.818;4.382;2022-07-22T10:09:12;4.05;;;2.67;;
22567;SDS011;11450;50.818;4.382;2022-07-22T10:31:48;4.03;;;2.65;;
22567;SDS011;11450;50.818;4.382;2022-07-22T10:34:39;8.00;;;3.20;;
22567;SDS011;11450;50.818;4.382;2022-07-22T10:46:55;2.78;;;2.10;;
22567;SDS011;11450;50.818;4.382;2022-07-22T10:49:52;4.07;;;2.05;;
22567;SDS011;11450;50.818;4.382;2022-07-22T10:53:17;2.22;;;1.88;;
22567;SDS011;11450;50.818;4.382;2022-07-22T11:02:31;3.03;;;2.17;;
22567;SDS011;11450;50.818;4.382;2022-07-22T11:08:08;3.72;;;1.95;;
22567;SDS011;11450;50.818;4.382;2022-07-22T11:15:00;8.57;;;3.10;;
22567;SDS011;11450;50.818;4.382;2022-07-22T11:21:00;2.42;;;2.05;;
22567;SDS011;11450;50.818;4.382;2022-07-22T11:24:14;5.75;;;2.40;;
22567;SDS011;11450;50.818;4.382;2022-07-22T11:30:41;4.65;;;2.83;;
22567;SDS011;11450;50.818;4.382;2022-07-22T11:34:11;3.58;;;2.72;;
22567;SDS011;11450;50.818;4.382;2022-07-22T11:43:09;5.05;;;2.67;;
22567;SDS011;11450;50.818;4.382;2022-07-22T11:46:34;2.83;;;2.40;;
22567;SDS011;11450;50.818;4.382;2022-07-22T12:01:49;3.78;;;2.72;;
22567;SDS011;11450;50.818;4.382;2022-07-22T12:04:43;6.10;;;2.90;;
22567;SDS011;11450;50.818;4.382;2022-07-22T12:20:42;5.63;;;2.90;;
22567;SDS011;11450;50.818;4.382;2022-07-22T12:26:50;4.75;;;3.30;;
22567;SDS011;11450;50.818;4.382;2022-07-22T12:40:20;7.28;;;3.58;;
22567;SDS011;11450;50.818;4.382;2022-07-22T13:14:37;7.25;;;3.22;;
22567;SDS011;11450;50.818;4.382;2022-07-22T13:17:30;3.92;;;3.15;;
22567;SDS011;11450;50.818;4.382;2022-07-22T13:20:19;4.50;;;3.30;;
22567;SDS011;11450;50.818;4.382;2022-07-22T13:22:51;3.78;;;2.83;;
22567;SDS011;11450;50.818;4.382;2022-07-22T13:29:26;8.40;;;3.72;;
22567;SDS011;11450;50.818;4.382;2022-07-22T13:35:12;3.60;;;2.88;;
22567;SDS011;11450;50.818;4.382;2022-07-22T13:51:32;8.43;;;3.40;;
22567;SDS011;11450;50.818;4.382;2022-07-22T13:53:58;3.40;;;2.90;;
22567;SDS011;11450;50.818;4.382;2022-07-22T13:56:24;7.45;;;3.40;;
22567;SDS011;11450;50.818;4.382;2022-07-22T13:58:50;6.10;;;3.03;;
22567;SDS011;11450;50.818;4.382;2022-07-22T14:01:17;4.80;;;4.32;;
22567;SDS011;11450;50.818;4.382;2022-07-22T14:03:44;5.35;;;3.28;;
22567;SDS011;11450;50.818;4.382;2022-07-22T14:06:10;3.42;;;2.50;;
22567;SDS011;11450;50.818;4.382;2022-07-22T14:08:36;5.47;;;3.20;;
22567;SDS011;11450;50.818;4.382;2022-07-22T14:11:03;5.50;;;3.00;;
22567;SDS011;11450;50.818;4.382;2022-07-22T14:13:30;3.88;;;2.85;;
22567;SDS011;11450;50.818;4.382;2022-07-22T14:15:55;6.07;;;3.22;;
22567;SDS011;11450;50.818;4.382;2022-07-22T14:18:21;5.30;;;3.45;;
22567;SDS011;11450;50.818;4.382;2022-07-22T14:20:56;6.15;;;3.42;;
22567;SDS011;11450;50.818;4.382;2022-07-22T14:23:52;5.35;;;3.33;;
22567;SDS011;11450;50.818;4.382;2022-07-22T14:27:07;5.50;;;3.45;;
22567;SDS011;11450;50.818;4.382;2022-07-22T14:30:00;5.05;;;2.90;;
22567;SDS011;11450;50.818;4.382;2022-07-22T14:33:05;6.90;;;3.78;;
22567;SDS011;11450;50.818;4.382;2022-07-22T14:36:17;7.15;;;3.80;;
22567;SDS011;11450;50.818;4.382;2022-07-22T14:39:21;5.07;;;2.63;;
22567;SDS011;11450;50.818;4.382;2022-07-22T14:45:19;6.22;;;3.47;;
22567;SDS011;11450;50.818;4.382;2022-07-22T14:48:32;5.88;;;3.30;;
22567;SDS011;11450;50.818;4.382;2022-07-22T14:51:39;6.75;;;3.70;;
22567;SDS011;11450;50.818;4.382;2022-07-22T14:59:49;4.43;;;3.40;;
22567;SDS011;11450;50.818;4.382;2022-07-22T15:02:26;4.30;;;3.50;;
22567;SDS011;11450;50.818;4.382;2022-07-22T15:05:14;9.18;;;3.42;;
22567;SDS011;11450;50.818;4.382;2022-07-22T15:07:39;6.95;;;3.75;;
22567;SDS011;11450;50.818;4.382;2022-07-22T15:10:06;5.28;;;3.35;;
22567;SDS011;11450;50.818;4.382;2022-07-22T15:15:18;5.65;;;3.35;;
22567;SDS011;11450;50.818;4.382;2022-07-22T15:17:44;5.57;;;3.33;;
22567;SDS011;11450;50.818;4.382;2022-07-22T15:20:13;5.90;;;3.42;;
22567;SDS011;11450;50.818;4.382;2022-07-22T15:22:56;7.70;;;3.30;;
22567;SDS011;11450;50.818;4.382;2022-07-22T15:25:46;6.35;;;3.72;;
22567;SDS011;11450;50.818;4.382;2022-07-22T15:29:14;6.00;;;3.00;;
22567;SDS011;11450;50.818;4.382;2022-07-22T15:35:26;7.03;;;3.80;;
22567;SDS011;11450;50.818;4.382;2022-07-22T15:38:29;5.38;;;3.30;;
22567;SDS011;11450;50.818;4.382;2022-07-22T15:41:19;5.22;;;3.20;;
22567;SDS011;11450;50.818;4.382;2022-07-22T15:43:46;6.57;;;4.38;;
22567;SDS011;11450;50.818;4.382;2022-07-22T15:46:14;6.03;;;3.63;;
22567;SDS011;11450;50.818;4.382;2022-07-22T15:48:48;7.93;;;4.60;;
22567;SDS011;11450;50.818;4.382;2022-07-22T15:51:14;5.40;;;4.05;;
22567;SDS011;11450;50.818;4.382;2022-07-22T15:53:41;4.78;;;3.13;;
22567;SDS011;11450;50.818;4.382;2022-07-22T15:56:12;6.40;;;4.10;;
22567;SDS011;11450;50.818;4.382;2022-07-22T15:58:40;11.93;;;4.50;;
22567;SDS011;11450;50.818;4.382;2022-07-22T16:01:26;3.85;;;3.10;;
22567;SDS011;11450;50.818;4.382;2022-07-22T16:04:02;5.32;;;4.75;;
22567;SDS011;11450;50.818;4.382;2022-07-22T16:17:37;5.50;;;4.25;;
22567;SDS011;11450;50.818;4.382;2022-07-22T16:20:05;7.78;;;5.00;;
22567;SDS011;11450;50.818;4.382;2022-07-22T16:22:38;7.22;;;4.53;;
22567;SDS011;11450;50.818;4.382;2022-07-22T16:31:06;8.60;;;4.68;;
22567;SDS011;11450;50.818;4.382;2022-07-22T16:41:19;6.30;;;5.18;;
22567;SDS011;11450;50.818;4.382;2022-07-22T16:43:51;12.32;;;6.75;;
22567;SDS011;11450;50.818;4.382;2022-07-22T16:46:18;8.55;;;5.68;;
22567;SDS011;11450;50.818;4.382;2022-07-22T16:48:48;7.38;;;5.20;;
22567;SDS011;11450;50.818;4.382;2022-07-22T16:56:38;8.50;;;6.38;;
22567;SDS011;11450;50.818;4.382;2022-07-22T16:59:05;6.57;;;5.70;;
22567;SDS011;11450;50.818;4.382;2022-07-22T17:01:34;8.77;;;5.97;;
22567;SDS011;11450;50.818;4.382;2022-07-22T17:04:04;8.75;;;5.45;;
22567;SDS011;11450;50.818;4.382;2022-07-22T17:06:33;7.47;;;5.20;;
22567;SDS011;11450;50.818;4.382;2022-07-22T17:08:59;10.98;;;5.60;;
22567;SDS011;11450;50.818;4.382;2022-07-22T17:11:25;7.85;;;6.22;;
22567;SDS011;11450;50.818;4.382;2022-07-22T17:13:53;5.55;;;5.05;;
22567;SDS011;11450;50.818;4.382;2022-07-22T17:16:44;6.55;;;4.75;;
22567;SDS011;11450;50.818;4.382;2022-07-22T17:19:30;6.72;;;5.18;;
22567;SDS011;11450;50.818;4.382;2022-07-22T17:22:22;6.20;;;4.47;;
22567;SDS011;11450;50.818;4.382;2022-07-22T17:25:15;5.95;;;4.65;;
22567;SDS011;11450;50.818;4.382;2022-07-22T17:27:55;6.20;;;5.22;;
22567;SDS011;11450;50.818;4.382;2022-07-22T17:30:27;8.23;;;5.30;;
22567;SDS011;11450;50.818;4.382;2022-07-22T17:33:30;7.95;;;5.03;;
22567;SDS011;11450;50.818;4.382;2022-07-22T17:36:07;5.43;;;4.57;;
22567;SDS011;11450;50.818;4.382;2022-07-22T17:38:35;6.00;;;4.43;;
22567;SDS011;11450;50.818;4.382;2022-07-22T17:41:05;8.38;;;6.00;;
22567;SDS011;11450;50.818;4.382;2022-07-22T17:43:31;8.48;;;5.95;;
22567;SDS011;11450;50.818;4.382;2022-07-22T17:45:58;8.40;;;5.78;;
22567;SDS011;11450;50.818;4.382;2022-07-22T17:48:24;9.82;;;6.18;;
22567;SDS011;11450;50.818;4.382;2022-07-22T17:50:51;6.68;;;4.97;;
22567;SDS011;11450;50.818;4.382;2022-07-22T17:53:31;7.03;;;5.90;;
22567;SDS011;11450;50.818;4.382;2022-07-22T17:55:57;8.32;;;5.93;;
22567;SDS011;11450;50.818;4.382;2022-07-22T17:58:23;9.20;;;6.55;;
22567;SDS011;11450;50.818;4.382;2022-07-22T18:00:49;6.32;;;5.70;;
22567;SDS011;11450;50.818;4.382;2022-07-22T18:03:14;6.82;;;5.55;;
22567;SDS011;11450;50.818;4.382;2022-07-22T18:05:40;11.63;;;7.65;;
22567;SDS011;11450;50.818;4.382;2022-07-22T18:08:07;9.15;;;6.47;;
22567;SDS011;11450;50.818;4.382;2022-07-22T18:10:32;8.25;;;6.03;;
22567;SDS011;11450;50.818;4.382;2022-07-22T18:12:58;11.70;;;7.25;;
22567;SDS011;11450;50.818;4.382;2022-07-22T18:15:24;7.53;;;6.75;;
22567;SDS011;11450;50.818;4.382;2022-07-22T18:17:49;9.07;;;6.40;;
22567;SDS011;11450;50.818;4.382;2022-07-22T18:20:15;9.07;;;6.38;;
22567;SDS011;11450;50.818;4.382;2022-07-22T18:22:41;8.18;;;6.78;;
22567;SDS011;11450;50.818;4.382;2022-07-22T18:25:07;11.35;;;7.13;;
22567;SDS011;11450;50.818;4.382;2022-07-22T18:27:33;9.20;;;6.65;;
22567;SDS011;11450;50.818;4.382;2022-07-22T18:29:59;8.35;;;7.07;;
22567;SDS011;11450;50.818;4.382;2022-07-22T18:32:24;10.27;;;7.68;;
22567;SDS011;11450;50.818;4.382;2022-07-22T18:34:50;12.48;;;8.18;;
22567;SDS011;11450;50.818;4.382;2022-07-22T18:37:16;8.18;;;6.43;;
22567;SDS011;11450;50.818;4.382;2022-07-22T18:39:41;9.00;;;6.43;;
22567;SDS011;11450;50.818;4.382;2022-07-22T18:42:07;10.10;;;7.43;;
22567;SDS011;11450;50.818;4.382;2022-07-22T18:44:32;8.13;;;6.63;;
22567;SDS011;11450;50.818;4.382;2022-07-22T18:46:58;8.00;;;7.20;;
22567;SDS011;11450;50.818;4.382;2022-07-22T18:49:24;9.00;;;6.72;;
22567;SDS011;11450;50.818;4.382;2022-07-22T18:51:49;8.45;;;6.25;;
22567;SDS011;11450;50.818;4.382;2022-07-22T18:54:15;8.30;;;6.45;;
22567;SDS011;11450;50.818;4.382;2022-07-22T18:56:41;9.80;;;7.28;;
22567;SDS011;11450;50.818;4.382;2022-07-22T18:59:07;6.68;;;5.97;;
22567;SDS011;11450;50.818;4.382;2022-07-22T19:01:33;6.68;;;5.60;;
22567;SDS011;11450;50.818;4.382;2022-07-22T19:03:59;8.05;;;5.88;;
22567;SDS011;11450;50.818;4.382;2022-07-22T19:06:24;7.10;;;6.40;;
22567;SDS011;11450;50.818;4.382;2022-07-22T19:08:50;8.88;;;6.85;;
22567;SDS011;11450;50.818;4.382;2022-07-22T19:11:19;7.55;;;6.35;;
22567;SDS011;11450;50.818;4.382;2022-07-22T19:13:45;9.52;;;6.10;;
22567;SDS011;11450;50.818;4.382;2022-07-22T19:16:11;10.57;;;6.05;;
22567;SDS011;11450;50.818;4.382;2022-07-22T19:18:36;10.20;;;6.68;;
22567;SDS011;11450;50.818;4.382;2022-07-22T19:21:02;12.43;;;6.47;;
22567;SDS011;11450;50.818;4.382;2022-07-22T19:23:28;11.45;;;6.90;;
22567;SDS011;11450;50.818;4.382;2022-07-22T19:25:54;6.85;;;5.85;;
22567;SDS011;11450;50.818;4.382;2022-07-22T19:28:19;6.97;;;6.03;;
22567;SDS011;11450;50.818;4.382;2022-07-22T19:30:45;7.47;;;5.95;;
22567;SDS011;11450;50.818;4.382;2022-07-22T19:33:11;7.88;;;6.20;;
22567;SDS011;11450;50.818;4.382;2022-07-22T19:35:37;7.68;;;6.22;;
22567;SDS011;11450;50.818;4.382;2022-07-22T19:40:43;8.68;;;5.93;;
22567;SDS011;11450;50.818;4.382;2022-07-22T19:43:09;10.38;;;6.35;;
22567;SDS011;11450;50.818;4.382;2022-07-22T19:45:35;9.77;;;6.60;;
22567;SDS011;11450;50.818;4.382;2022-07-22T19:48:00;6.72;;;6.03;;
22567;SDS011;11450;50.818;4.382;2022-07-22T19:50:26;9.43;;;6.20;;
22567;SDS011;11450;50.818;4.382;2022-07-22T19:52:52;7.57;;;5.90;;
22567;SDS011;11450;50.818;4.382;2022-07-22T19:55:17;7.75;;;5.57;;
22567;SDS011;11450;50.818;4.382;2022-07-22T19:57:43;7.13;;;5.65;;
22567;SDS011;11450;50.818;4.382;2022-07-22T20:00:09;7.07;;;5.55;;
22567;SDS011;11450;50.818;4.382;2022-07-22T20:02:37;6.30;;;5.38;;
22567;SDS011;11450;50.818;4.382;2022-07-22T20:05:04;8.10;;;5.75;;
22567;SDS011;11450;50.818;4.382;2022-07-22T20:07:31;6.03;;;5.32;;
22567;SDS011;11450;50.818;4.382;2022-07-22T20:09:57;6.53;;;5.80;;
22567;SDS011;11450;50.818;4.382;2022-07-22T20:12:23;6.50;;;4.90;;
22567;SDS011;11450;50.818;4.382;2022-07-22T20:14:48;8.52;;;5.47;;
22567;SDS011;11450;50.818;4.382;2022-07-22T20:17:14;10.15;;;5.22;;
22567;SDS011;11450;50.818;4.382;2022-07-22T20:19:40;10.13;;;5.55;;
22567;SDS011;11450;50.818;4.382;2022-07-22T20:22:05;8.95;;;5.15;;
22567;SDS011;11450;50.818;4.382;2022-07-22T20:24:32;6.95;;;5.13;;
22567;SDS011;11450;50.818;4.382;2022-07-22T20:26:58;10.90;;;5.05;;
22567;SDS011;11450;50.818;4.382;2022-07-22T20:29:27;9.25;;;5.68;;
22567;SDS011;11450;50.818;4.382;2022-07-22T20:31:57;7.68;;;5.47;;
22567;SDS011;11450;50.818;4.382;2022-07-22T20:34:23;6.88;;;5.47;;
22567;SDS011;11450;50.818;4.382;2022-07-22T20:36:49;6.07;;;5.20;;
22567;SDS011;11450;50.818;4.382;2022-07-22T20:39:17;6.28;;;5.57;;
22567;SDS011;11450;50.818;4.382;2022-07-22T20:41:44;8.65;;;5.63;;
22567;SDS011;11450;50.818;4.382;2022-07-22T20:47:04;9.75;;;6.38;;
22567;SDS011;11450;50.818;4.382;2022-07-22T20:49:33;6.72;;;5.40;;
22567;SDS011;11450;50.818;4.382;2022-07-22T20:51:58;6.38;;;5.50;;
22567;SDS011;11450;50.818;4.382;2022-07-22T20:54:25;6.20;;;5.60;;
22567;SDS011;11450;50.818;4.382;2022-07-22T20:56:51;11.23;;;6.20;;
22567;SDS011;11450;50.818;4.382;2022-07-22T20:59:17;10.02;;;6.82;;
22567;SDS011;11450;50.818;4.382;2022-07-22T21:01:43;7.15;;;5.60;;
22567;SDS011;11450;50.818;4.382;2022-07-22T21:04:08;11.60;;;6.43;;
22567;SDS011;11450;50.818;4.382;2022-07-22T21:06:37;8.55;;;6.20;;
22567;SDS011;11450;50.818;4.382;2022-07-22T21:09:05;9.18;;;5.95;;
22567;SDS011;11450;50.818;4.382;2022-07-22T21:11:31;7.00;;;6.30;;
22567;SDS011;11450;50.818;4.382;2022-07-22T21:13:57;8.20;;;7.30;;
22567;SDS011;11450;50.818;4.382;2022-07-22T21:16:22;9.25;;;6.55;;
22567;SDS011;11450;50.818;4.382;2022-07-22T21:18:48;8.68;;;5.93;;
22567;SDS011;11450;50.818;4.382;2022-07-22T21:21:13;8.00;;;6.03;;
22567;SDS011;11450;50.818;4.382;2022-07-22T21:23:40;7.28;;;5.50;;